sensor_id;sensor_type;location;lat;lon;timestamp;pressure;altitude;pressure_sealevel;temperature;humidity
10145;BME280;5113;41.822;23.564;2022-07-18T00:00:38;-11371.72;;;15.80;100.00
10145;BME280;5113;41.822;23.564;2022-07-18T00:03:45;-11370.31;;;15.75;100.00
10145;BME280;5113;41.822;23.564;2022-07-18T00:06:51;-11382.56;;;16.19;100.00
10145;BME280;5113;41.822;23.564;2022-07-18T00:09:58;-11385.66;;;16.30;100.00
10145;BME280;5113;41.822;23.564;2022-07-18T00:13:04;-11398.91;;;16.78;100.00
10145;BME280;5113;41.822;23.564;2022-07-18T00:16:11;-11387.91;;;16.38;100.00
10145;BME280;5113;41.822;23.564;2022-07-18T00:19:18;-11351.28;;;15.06;100.00
10145;BME280;5113;41.822;23.564;2022-07-18T00:22:24;-11355.09;;;15.20;100.00
10145;BME280;5113;41.822;23.564;2022-07-18T00:25:30;-11361.44;;;15.43;100.00
10145;BME280;5113;41.822;23.564;2022-07-18T00:28:36;-11361.44;;;15.43;100.00
10145;BME280;5113;41.822;23.564;2022-07-18T00:31:44;-11375.53;;;15.94;100.00
10145;BME280;5113;41.822;23.564;2022-07-18T00:34:50;-11370.16;;;15.74;100.00
10145;BME280;5113;41.822;23.564;2022-07-18T00:37:57;-11349.88;;;15.01;100.00
10145;BME280;5113;41.822;23.564;2022-07-18T00:41:03;-11367.06;;;15.63;100.00
10145;BME280;5113;41.822;23.564;2022-07-18T00:44:16;-11357.63;;;15.29;100.00
10145;BME280;5113;41.822;23.564;2022-07-18T00:47:23;-11373.41;;;15.86;100.00
10145;BME280;5113;41.822;23.564;2022-07-18T00:50:30;-11373.84;;;15.88;100.00
10145;BME280;5113;41.822;23.564;2022-07-18T00:53:37;-11376.50;;;15.97;100.00
10145;BME280;5113;41.822;23.564;2022-07-18T00:56:44;-11374.81;;;15.91;100.00
10145;BME280;5113;41.822;23.564;2022-07-18T00:59:51;-11370.88;;;15.77;100.00
10145;BME280;5113;41.822;23.564;2022-07-18T01:03:16;-11372.72;;;15.83;100.00
10145;BME280;5113;41.822;23.564;2022-07-18T01:06:23;-11372.56;;;15.83;100.00
10145;BME280;5113;41.822;23.564;2022-07-18T01:09:29;-11366.78;;;15.62;100.00
10145;BME280;5113;41.822;23.564;2022-07-18T01:12:35;-11371.44;;;15.79;100.00
10145;BME280;5113;41.822;23.564;2022-07-18T01:15:42;-11369.31;;;15.71;100.00
10145;BME280;5113;41.822;23.564;2022-07-18T01:18:50;-11370.72;;;15.76;100.00
10145;BME280;5113;41.822;23.564;2022-07-18T01:21:58;-11376.38;;;15.97;100.00
10145;BME280;5113;41.822;23.564;2022-07-18T01:25:05;-11373.56;;;15.87;100.00
10145;BME280;5113;41.822;23.564;2022-07-18T01:28:12;-11373.56;;;15.87;100.00
10145;BME280;5113;41.822;23.564;2022-07-18T01:31:19;-11372.44;;;15.82;100.00
10145;BME280;5113;41.822;23.564;2022-07-18T01:34:25;-11368.19;;;15.67;100.00
10145;BME280;5113;41.822;23.564;2022-07-18T01:37:33;-11365.09;;;15.56;100.00
10145;BME280;5113;41.822;23.564;2022-07-18T01:40:40;-11359.75;;;15.37;100.00
10145;BME280;5113;41.822;23.564;2022-07-18T01:43:47;-11350.88;;;15.05;100.00
10145;BME280;5113;41.822;23.564;2022-07-18T01:46:53;-11349.31;;;14.99;100.00
10145;BME280;5113;41.822;23.564;2022-07-18T01:49:59;-11358.19;;;15.31;100.00
10145;BME280;5113;41.822;23.564;2022-07-18T01:53:07;-11365.94;;;15.59;100.00
10145;BME280;5113;41.822;23.564;2022-07-18T01:56:14;-11368.06;;;15.67;100.00
10145;BME280;5113;41.822;23.564;2022-07-18T01:59:20;-11372.72;;;15.83;100.00
10145;BME280;5113;41.822;23.564;2022-07-18T02:02:26;-11364.81;;;15.55;100.00
10145;BME280;5113;41.822;23.564;2022-07-18T02:05:33;-11355.09;;;15.20;100.00
10145;BME280;5113;41.822;23.564;2022-07-18T02:08:40;-11350.44;;;15.03;100.00
10145;BME280;5113;41.822;23.564;2022-07-18T02:11:46;-11351.44;;;15.07;100.00
10145;BME280;5113;41.822;23.564;2022-07-18T02:14:52;-11354.53;;;15.18;100.00
10145;BME280;5113;41.822;23.564;2022-07-18T02:17:59;-11348.63;;;14.97;100.00
10145;BME280;5113;41.822;23.564;2022-07-18T02:21:05;-11345.94;;;14.87;100.00
10145;BME280;5113;41.822;23.564;2022-07-18T02:24:13;-11349.31;;;14.99;100.00
10145;BME280;5113;41.822;23.564;2022-07-18T02:27:20;-11340.31;;;14.67;100.00
10145;BME280;5113;41.822;23.564;2022-07-18T02:30:26;-11342.84;;;14.76;100.00
10145;BME280;5113;41.822;23.564;2022-07-18T02:33:33;-11344.09;;;14.80;100.00
10145;BME280;5113;41.822;23.564;2022-07-18T02:36:39;-11337.78;;;14.58;100.00
10145;BME280;5113;41.822;23.564;2022-07-18T02:39:48;-11348.19;;;14.95;100.00
10145;BME280;5113;41.822;23.564;2022-07-18T02:42:54;-11350.16;;;15.02;100.00
10145;BME280;5113;41.822;23.564;2022-07-18T02:46:01;-11350.72;;;15.04;100.00
10145;BME280;5113;41.822;23.564;2022-07-18T02:49:08;-11346.78;;;14.90;100.00
10145;BME280;5113;41.822;23.564;2022-07-18T02:52:15;-11340.72;;;14.68;100.00
10145;BME280;5113;41.822;23.564;2022-07-18T02:55:23;-11334.66;;;14.46;100.00
10145;BME280;5113;41.822;23.564;2022-07-18T02:58:30;-11336.78;;;14.54;100.00
10145;BME280;5113;41.822;23.564;2022-07-18T03:01:37;-11322.41;;;14.02;100.00
10145;BME280;5113;41.822;23.564;2022-07-18T03:04:43;-11331.28;;;14.34;100.00
10145;BME280;5113;41.822;23.564;2022-07-18T03:07:50;-11323.97;;;14.08;100.00
10145;BME280;5113;41.822;23.564;2022-07-18T03:10:57;-11316.50;;;13.81;100.00
10145;BME280;5113;41.822;23.564;2022-07-18T03:14:04;-11338.34;;;14.60;100.00
10145;BME280;5113;41.822;23.564;2022-07-18T03:17:10;-11316.38;;;13.80;100.00
10145;BME280;5113;41.822;23.564;2022-07-18T03:20:17;-11326.94;;;14.18;100.00
10145;BME280;5113;41.822;23.564;2022-07-18T03:23:23;-11322.97;;;14.04;100.00
10145;BME280;5113;41.822;23.564;2022-07-18T03:26:30;-11321.44;;;13.99;100.00
10145;BME280;5113;41.822;23.564;2022-07-18T03:29:37;-11319.19;;;13.91;100.00
10145;BME280;5113;41.822;23.564;2022-07-18T03:32:43;-11324.25;;;14.09;100.00
10145;BME280;5113;41.822;23.564;2022-07-18T03:35:49;-11331.00;;;14.33;100.00
10145;BME280;5113;41.822;23.564;2022-07-18T03:39:13;-11333.84;;;14.43;100.00
10145;BME280;5113;41.822;23.564;2022-07-18T03:42:21;-11322.84;;;14.04;100.00
10145;BME280;5113;41.822;23.564;2022-07-18T03:45:27;-11330.72;;;14.32;100.00
10145;BME280;5113;41.822;23.564;2022-07-18T03:48:34;-11318.34;;;13.87;100.00
10145;BME280;5113;41.822;23.564;2022-07-18T03:51:41;-11331.00;;;14.33;100.00
10145;BME280;5113;41.822;23.564;2022-07-18T03:54:47;-11336.94;;;14.54;100.00
10145;BME280;5113;41.822;23.564;2022-07-18T03:57:55;-11338.06;;;14.59;100.00
10145;BME280;5113;41.822;23.564;2022-07-18T04:01:02;-11339.03;;;14.62;100.00
10145;BME280;5113;41.822;23.564;2022-07-18T04:04:09;-11341.00;;;14.69;100.00
10145;BME280;5113;41.822;23.564;2022-07-18T04:07:15;-11346.66;;;14.90;100.00
10145;BME280;5113;41.822;23.564;2022-07-18T04:10:21;-11345.09;;;14.84;100.00
10145;BME280;5113;41.822;23.564;2022-07-18T04:13:29;-11350.44;;;15.03;100.00
10145;BME280;5113;41.822;23.564;2022-07-18T04:16:35;-11353.41;;;15.14;100.00
10145;BME280;5113;41.822;23.564;2022-07-18T04:19:41;-11352.84;;;15.12;100.00
10145;BME280;5113;41.822;23.564;2022-07-18T04:22:49;-11358.19;;;15.31;100.00
10145;BME280;5113;41.822;23.564;2022-07-18T04:25:56;-11362.97;;;15.48;100.00
10145;BME280;5113;41.822;23.564;2022-07-18T04:29:04;-11368.75;;;15.69;98.00
10145;BME280;5113;41.822;23.564;2022-07-18T04:32:11;-11375.09;;;15.92;97.68
10145;BME280;5113;41.822;23.564;2022-07-18T04:35:17;-11378.91;;;16.06;90.84
10145;BME280;5113;41.822;23.564;2022-07-18T04:38:23;-11377.22;;;16.00;88.05
10145;BME280;5113;41.822;23.564;2022-07-18T04:41:29;-11381.59;;;16.15;86.33
10145;BME280;5113;41.822;23.564;2022-07-18T04:44:40;-11382.16;;;16.17;85.82
10145;BME280;5113;41.822;23.564;2022-07-18T04:47:47;-11391.59;;;16.51;85.53
10145;BME280;5113;41.822;23.564;2022-07-18T04:50:54;-11390.47;;;16.47;82.37
10145;BME280;5113;41.822;23.564;2022-07-18T04:54:00;-11406.25;;;17.04;82.45
10145;BME280;5113;41.822;23.564;2022-07-18T04:57:06;-11401.31;;;16.87;79.21
10145;BME280;5113;41.822;23.564;2022-07-18T05:00:16;-11410.19;;;17.19;75.32
10145;BME280;5113;41.822;23.564;2022-07-18T05:03:23;-11416.38;;;17.41;74.33
10145;BME280;5113;41.822;23.564;2022-07-18T05:06:29;-11413.00;;;17.29;73.02
10145;BME280;5113;41.822;23.564;2022-07-18T05:09:36;-11429.50;;;17.88;70.66
10145;BME280;5113;41.822;23.564;2022-07-18T05:12:47;-11441.75;;;18.32;69.97
10145;BME280;5113;41.822;23.564;2022-07-18T05:15:55;-11443.19;;;18.37;69.95
10145;BME280;5113;41.822;23.564;2022-07-18T05:19:02;-11446.84;;;18.51;69.43
10145;BME280;5113;41.822;23.564;2022-07-18T05:22:08;-11443.88;;;18.40;69.72
10145;BME280;5113;41.822;23.564;2022-07-18T05:25:14;-11451.06;;;18.66;70.32
10145;BME280;5113;41.822;23.564;2022-07-18T05:28:20;-11455.31;;;18.81;68.68
10145;BME280;5113;41.822;23.564;2022-07-18T05:31:29;-11462.34;;;19.06;66.99
10145;BME280;5113;41.822;23.564;2022-07-18T05:34:35;-11463.47;;;19.10;66.37
10145;BME280;5113;41.822;23.564;2022-07-18T05:37:42;-11468.00;;;19.27;67.92
10145;BME280;5113;41.822;23.564;2022-07-18T05:40:48;-11471.53;;;19.39;65.25
10145;BME280;5113;41.822;23.564;2022-07-18T05:43:54;-11471.66;;;19.40;62.51
10145;BME280;5113;41.822;23.564;2022-07-18T05:47:02;-11470.53;;;19.36;63.88
10145;BME280;5113;41.822;23.564;2022-07-18T05:50:09;-11474.91;;;19.52;63.20
10145;BME280;5113;41.822;23.564;2022-07-18T05:53:15;-11468.28;;;19.28;63.43
10145;BME280;5113;41.822;23.564;2022-07-18T05:56:22;-11471.81;;;19.40;62.06
10145;BME280;5113;41.822;23.564;2022-07-18T05:59:28;-11474.91;;;19.52;60.98
10145;BME280;5113;41.822;23.564;2022-07-18T06:02:36;-11489.44;;;20.04;58.53
10145;BME280;5113;41.822;23.564;2022-07-18T06:05:42;-11488.59;;;20.01;59.83
10145;BME280;5113;41.822;23.564;2022-07-18T06:08:49;-11500.72;;;20.44;56.54
10145;BME280;5113;41.822;23.564;2022-07-18T06:11:55;-11498.44;;;20.36;56.34
10145;BME280;5113;41.822;23.564;2022-07-18T06:15:03;-11506.62;;;20.66;55.40
10145;BME280;5113;41.822;23.564;2022-07-18T06:18:11;-11497.31;;;20.32;54.27
10145;BME280;5113;41.822;23.564;2022-07-18T06:21:17;-11492.53;;;20.15;55.44
10145;BME280;5113;41.822;23.564;2022-07-18T06:24:23;-11502.69;;;20.52;55.11
10145;BME280;5113;41.822;23.564;2022-07-18T06:27:29;-11513.69;;;20.91;53.81
10145;BME280;5113;41.822;23.564;2022-07-18T06:30:35;-11513.41;;;20.90;53.50
10145;BME280;5113;41.822;23.564;2022-07-18T06:33:43;-11505.50;;;20.62;54.62
10145;BME280;5113;41.822;23.564;2022-07-18T06:36:50;-11521.44;;;21.19;54.06
10145;BME280;5113;41.822;23.564;2022-07-18T06:39:56;-11521.88;;;21.21;53.31
10145;BME280;5113;41.822;23.564;2022-07-18T06:43:07;-11520.88;;;21.17;52.95
10145;BME280;5113;41.822;23.564;2022-07-18T06:46:13;-11534.84;;;21.67;51.49
10145;BME280;5113;41.822;23.564;2022-07-18T06:49:21;-11528.66;;;21.45;52.03
10145;BME280;5113;41.822;23.564;2022-07-18T06:52:27;-11532.59;;;21.59;51.11
10145;BME280;5113;41.822;23.564;2022-07-18T06:55:34;-11539.38;;;21.84;51.41
10145;BME280;5113;41.822;23.564;2022-07-18T06:58:40;-11539.66;;;21.85;50.90
10145;BME280;5113;41.822;23.564;2022-07-18T07:01:47;-11539.22;;;21.83;50.74
10145;BME280;5113;41.822;23.564;2022-07-18T07:04:55;-11541.22;;;21.90;49.42
10145;BME280;5113;41.822;23.564;2022-07-18T07:08:01;-11549.81;;;22.21;49.12
10145;BME280;5113;41.822;23.564;2022-07-18T07:11:08;-11540.50;;;21.88;51.38
10145;BME280;5113;41.822;23.564;2022-07-18T07:14:14;-11576.75;;;23.18;50.11
10145;BME280;5113;41.822;23.564;2022-07-18T07:17:20;-11547.00;;;22.11;49.89
10145;BME280;5113;41.822;23.564;2022-07-18T07:20:29;-11547.69;;;22.14;50.00
10145;BME280;5113;41.822;23.564;2022-07-18T07:23:35;-11555.59;;;22.42;49.55
10145;BME280;5113;41.822;23.564;2022-07-18T07:26:41;-11560.13;;;22.58;48.82
10145;BME280;5113;41.822;23.564;2022-07-18T07:29:48;-11581.56;;;23.35;47.21
10145;BME280;5113;41.822;23.564;2022-07-18T07:32:54;-11570.13;;;22.94;46.54
10145;BME280;5113;41.822;23.564;2022-07-18T07:36:03;-11579.16;;;23.27;46.18
10145;BME280;5113;41.822;23.564;2022-07-18T07:39:09;-11575.06;;;23.12;46.16
10145;BME280;5113;41.822;23.564;2022-07-18T07:42:16;-11569.28;;;22.91;45.34
10145;BME280;5113;41.822;23.564;2022-07-18T07:45:22;-11587.78;;;23.58;44.35
10145;BME280;5113;41.822;23.564;2022-07-18T07:48:28;-11573.53;;;23.07;41.50
10145;BME280;5113;41.822;23.564;2022-07-18T07:51:35;-11592.84;;;23.76;40.28
10145;BME280;5113;41.822;23.564;2022-07-18T07:54:42;-11593.56;;;23.79;43.39
10145;BME280;5113;41.822;23.564;2022-07-18T07:57:49;-11584.25;;;23.45;44.73
10145;BME280;5113;41.822;23.564;2022-07-18T08:00:56;-11601.47;;;24.07;42.59
10145;BME280;5113;41.822;23.564;2022-07-18T08:04:02;-11589.47;;;23.64;43.19
10145;BME280;5113;41.822;23.564;2022-07-18T08:07:10;-11615.16;;;24.56;41.83
10145;BME280;5113;41.822;23.564;2022-07-18T08:10:16;-11617.16;;;24.63;41.81
10145;BME280;5113;41.822;23.564;2022-07-18T08:13:23;-11605.44;;;24.21;42.14
10145;BME280;5113;41.822;23.564;2022-07-18T08:16:29;-11620.66;;;24.76;41.43
10145;BME280;5113;41.822;23.564;2022-07-18T08:19:36;-11622.22;;;24.82;41.47
10145;BME280;5113;41.822;23.564;2022-07-18T08:22:55;-11638.19;;;25.39;40.38
10145;BME280;5113;41.822;23.564;2022-07-18T08:26:01;-11603.88;;;24.16;41.05
10145;BME280;5113;41.822;23.564;2022-07-18T08:29:08;-11628.16;;;25.03;40.96
10145;BME280;5113;41.822;23.564;2022-07-18T08:32:14;-11653.72;;;25.95;40.38
10145;BME280;5113;41.822;23.564;2022-07-18T08:35:20;-11664.03;;;26.32;38.47
10145;BME280;5113;41.822;23.564;2022-07-18T08:38:27;-11649.91;;;25.81;39.08
10145;BME280;5113;41.822;23.564;2022-07-18T08:41:35;-11655.13;;;26.00;38.29
10145;BME280;5113;41.822;23.564;2022-07-18T08:44:42;-11668.69;;;26.49;36.87
10145;BME280;5113;41.822;23.564;2022-07-18T08:47:49;-11670.38;;;26.55;37.50
10145;BME280;5113;41.822;23.564;2022-07-18T08:50:55;-11660.78;;;26.20;38.75
10145;BME280;5113;41.822;23.564;2022-07-18T08:54:03;-11671.50;;;26.59;37.47
10145;BME280;5113;41.822;23.564;2022-07-18T08:57:09;-11670.09;;;26.54;37.91
10145;BME280;5113;41.822;23.564;2022-07-18T09:00:15;-11654.13;;;25.96;37.95
10145;BME280;5113;41.822;23.564;2022-07-18T09:03:22;-11678.28;;;26.83;37.25
10145;BME280;5113;41.822;23.564;2022-07-18T09:06:41;-11674.31;;;26.69;37.06
10145;BME280;5113;41.822;23.564;2022-07-18T09:09:53;-11699.19;;;27.58;35.88
10145;BME280;5113;41.822;23.564;2022-07-18T09:13:01;-11710.19;;;27.98;35.64
10145;BME280;5113;41.822;23.564;2022-07-18T09:16:09;-11715.84;;;28.18;34.10
10145;BME280;5113;41.822;23.564;2022-07-18T09:19:16;-11719.25;;;28.31;32.74
10145;BME280;5113;41.822;23.564;2022-07-18T09:22:23;-11696.78;;;27.50;34.27
10145;BME280;5113;41.822;23.564;2022-07-18T09:25:32;-11730.25;;;28.70;33.92
10145;BME280;5113;41.822;23.564;2022-07-18T09:28:47;-11721.38;;;28.38;33.98
10145;BME280;5113;41.822;23.564;2022-07-18T09:32:21;-11721.78;;;28.40;33.05
10145;BME280;5113;41.822;23.564;2022-07-18T09:35:28;-11699.91;;;27.61;33.71
10145;BME280;5113;41.822;23.564;2022-07-18T09:38:36;-11692.84;;;27.36;32.65
10145;BME280;5113;41.822;23.564;2022-07-18T09:41:44;-11714.44;;;28.13;31.75
10145;BME280;5113;41.822;23.564;2022-07-18T09:44:57;-11727.59;;;28.60;31.47
10145;BME280;5113;41.822;23.564;2022-07-18T09:48:06;-11718.97;;;28.30;32.92
10145;BME280;5113;41.822;23.564;2022-07-18T09:51:13;-11731.81;;;28.76;31.21
10145;BME280;5113;41.822;23.564;2022-07-18T09:54:22;-11752.44;;;29.50;30.38
10145;BME280;5113;41.822;23.564;2022-07-18T09:57:31;-11734.50;;;28.85;30.13
10145;BME280;5113;41.822;23.564;2022-07-18T10:00:39;-11705.81;;;27.82;31.37
10145;BME280;5113;41.822;23.564;2022-07-18T10:03:46;-11733.37;;;28.81;30.22
10145;BME280;5113;41.822;23.564;2022-07-18T10:06:54;-11727.28;;;28.59;29.07
10145;BME280;5113;41.822;23.564;2022-07-18T10:10:00;-11753.44;;;29.53;29.30
10145;BME280;5113;41.822;23.564;2022-07-18T10:13:08;-11767.56;;;30.04;27.83
10145;BME280;5113;41.822;23.564;2022-07-18T10:16:15;-11764.16;;;29.92;28.94
10145;BME280;5113;41.822;23.564;2022-07-18T10:19:21;-11770.66;;;30.15;30.18
10145;BME280;5113;41.822;23.564;2022-07-18T10:22:28;-11778.88;;;30.45;28.11
10145;BME280;5113;41.822;23.564;2022-07-18T10:25:35;-11756.69;;;29.65;27.97
10145;BME280;5113;41.822;23.564;2022-07-18T10:32:33;-11728.28;;;28.63;27.90
10145;BME280;5113;41.822;23.564;2022-07-18T10:35:58;-11765.31;;;29.96;27.14
10145;BME280;5113;41.822;23.564;2022-07-18T10:39:16;-11772.66;;;30.22;25.35
10145;BME280;5113;41.822;23.564;2022-07-18T10:42:25;-11749.34;;;29.39;25.92
10145;BME280;5113;41.822;23.564;2022-07-18T10:45:42;-11714.88;;;28.15;26.56
10145;BME280;5113;41.822;23.564;2022-07-18T10:48:53;-11730.53;;;28.71;27.90
10145;BME280;5113;41.822;23.564;2022-07-18T10:52:00;-11726.31;;;28.56;27.72
10145;BME280;5113;41.822;23.564;2022-07-18T10:55:27;-11733.94;;;28.83;27.59
10145;BME280;5113;41.822;23.564;2022-07-18T10:58:38;-11745.09;;;29.23;25.50
10145;BME280;5113;41.822;23.564;2022-07-18T11:01:48;-11733.09;;;28.80;25.58
10145;BME280;5113;41.822;23.564;2022-07-18T11:04:56;-11745.25;;;29.24;25.66
10145;BME280;5113;41.822;23.564;2022-07-18T11:08:17;-11741.00;;;29.09;25.37
10145;BME280;5113;41.822;23.564;2022-07-18T11:11:25;-11721.66;;;28.39;25.70
10145;BME280;5113;41.822;23.564;2022-07-18T11:14:57;-11739.03;;;29.02;26.10
10145;BME280;5113;41.822;23.564;2022-07-18T11:18:13;-11736.63;;;28.93;25.75
10145;BME280;5113;41.822;23.564;2022-07-18T11:21:21;-11748.91;;;29.37;27.33
10145;BME280;5113;41.822;23.564;2022-07-18T11:24:28;-11758.09;;;29.70;25.64
10145;BME280;5113;41.822;23.564;2022-07-18T11:27:39;-11751.75;;;29.47;25.39
10145;BME280;5113;41.822;23.564;2022-07-18T11:30:46;-11715.00;;;28.15;26.01
10145;BME280;5113;41.822;23.564;2022-07-18T11:34:04;-11778.44;;;30.43;24.81
10145;BME280;5113;41.822;23.564;2022-07-18T11:37:13;-11758.09;;;29.70;24.57
10145;BME280;5113;41.822;23.564;2022-07-18T11:40:22;-11742.97;;;29.16;25.25
10145;BME280;5113;41.822;23.564;2022-07-18T11:43:28;-11747.63;;;29.33;25.06
10145;BME280;5113;41.822;23.564;2022-07-18T11:46:34;-11770.38;;;30.14;25.75
10145;BME280;5113;41.822;23.564;2022-07-18T11:49:54;-11773.50;;;30.26;24.87
10145;BME280;5113;41.822;23.564;2022-07-18T11:53:02;-11794.97;;;31.03;23.88
10145;BME280;5113;41.822;23.564;2022-07-18T11:56:09;-11792.00;;;30.92;23.57
10145;BME280;5113;41.822;23.564;2022-07-18T11:59:15;-11793.69;;;30.98;25.03
10145;BME280;5113;41.822;23.564;2022-07-18T12:02:21;-11753.56;;;29.54;25.25
10145;BME280;5113;41.822;23.564;2022-07-18T12:05:32;-11792.00;;;30.92;25.64
10145;BME280;5113;41.822;23.564;2022-07-18T12:08:41;-11750.91;;;29.44;26.31
10145;BME280;5113;41.822;23.564;2022-07-18T12:11:48;-11736.91;;;28.94;27.89
10145;BME280;5113;41.822;23.564;2022-07-18T12:15:14;-11724.47;;;28.49;27.21
10145;BME280;5113;41.822;23.564;2022-07-18T12:18:28;-11752.72;;;29.51;26.14
10145;BME280;5113;41.822;23.564;2022-07-18T12:21:48;-11775.47;;;30.33;25.58
10145;BME280;5113;41.822;23.564;2022-07-18T12:24:58;-11764.75;;;29.94;25.83
10145;BME280;5113;41.822;23.564;2022-07-18T12:28:15;-11770.38;;;30.14;26.88
10145;BME280;5113;41.822;23.564;2022-07-18T12:31:46;-11781.97;;;30.56;26.63
10145;BME280;5113;41.822;23.564;2022-07-18T12:34:56;-11765.03;;;29.95;26.36
10145;BME280;5113;41.822;23.564;2022-07-18T12:38:06;-11761.06;;;29.81;26.66
10145;BME280;5113;41.822;23.564;2022-07-18T12:41:14;-11791.31;;;30.90;27.00
10145;BME280;5113;41.822;23.564;2022-07-18T12:44:20;-11793.84;;;30.99;27.68
10145;BME280;5113;41.822;23.564;2022-07-18T12:47:27;-11778.59;;;30.44;26.77
10145;BME280;5113;41.822;23.564;2022-07-18T12:50:34;-11746.09;;;29.27;27.84
10145;BME280;5113;41.822;23.564;2022-07-18T12:53:41;-11786.50;;;30.72;26.73
10145;BME280;5113;41.822;23.564;2022-07-18T12:56:49;-11790.03;;;30.85;27.64
10145;BME280;5113;41.822;23.564;2022-07-18T12:59:55;-11768.41;;;30.07;28.00
10145;BME280;5113;41.822;23.564;2022-07-18T13:03:01;-11768.13;;;30.06;27.81
10145;BME280;5113;41.822;23.564;2022-07-18T13:06:08;-11751.75;;;29.47;26.47
10145;BME280;5113;41.822;23.564;2022-07-18T13:09:14;-11801.06;;;31.25;26.97
10145;BME280;5113;41.822;23.564;2022-07-18T13:12:22;-11792.16;;;30.93;26.11
10145;BME280;5113;41.822;23.564;2022-07-18T13:15:28;-11757.81;;;29.69;26.66
10145;BME280;5113;41.822;23.564;2022-07-18T13:18:34;-11765.03;;;29.95;26.33
10145;BME280;5113;41.822;23.564;2022-07-18T13:21:41;-11777.03;;;30.38;27.43
10145;BME280;5113;41.822;23.564;2022-07-18T13:24:47;-11773.63;;;30.26;26.95
10145;BME280;5113;41.822;23.564;2022-07-18T13:27:55;-11766.44;;;30.00;26.78
10145;BME280;5113;41.822;23.564;2022-07-18T13:31:02;-11770.09;;;30.13;26.94
10145;BME280;5113;41.822;23.564;2022-07-18T13:34:08;-11769.25;;;30.10;27.30
10145;BME280;5113;41.822;23.564;2022-07-18T13:37:14;-11760.78;;;29.80;27.35
10145;BME280;5113;41.822;23.564;2022-07-18T13:40:21;-11776.03;;;30.35;27.04
10145;BME280;5113;41.822;23.564;2022-07-18T13:43:34;-11740.00;;;29.05;27.36
10145;BME280;5113;41.822;23.564;2022-07-18T13:46:43;-11764.59;;;29.94;26.83
10145;BME280;5113;41.822;23.564;2022-07-18T13:49:49;-11752.59;;;29.50;27.64
10145;BME280;5113;41.822;23.564;2022-07-18T13:52:56;-11760.50;;;29.79;26.83
10145;BME280;5113;41.822;23.564;2022-07-18T13:56:02;-11783.66;;;30.62;27.29
10145;BME280;5113;41.822;23.564;2022-07-18T13:59:10;-11778.59;;;30.44;27.12
10145;BME280;5113;41.822;23.564;2022-07-18T14:02:17;-11802.59;;;31.30;25.98
10145;BME280;5113;41.822;23.564;2022-07-18T14:05:24;-11777.03;;;30.38;26.70
10145;BME280;5113;41.822;23.564;2022-07-18T14:08:31;-11745.94;;;29.27;28.14
10145;BME280;5113;41.822;23.564;2022-07-18T14:11:37;-11779.16;;;30.46;26.68
10145;BME280;5113;41.822;23.564;2022-07-18T14:14:45;-11767.84;;;30.05;26.89
10145;BME280;5113;41.822;23.564;2022-07-18T14:17:51;-11759.94;;;29.77;27.68
10145;BME280;5113;41.822;23.564;2022-07-18T14:20:58;-11786.50;;;30.72;26.50
10145;BME280;5113;41.822;23.564;2022-07-18T14:24:05;-11780.84;;;30.52;25.80
10145;BME280;5113;41.822;23.564;2022-07-18T14:27:11;-11779.56;;;30.47;26.67
10145;BME280;5113;41.822;23.564;2022-07-18T14:30:18;-11788.47;;;30.79;26.03
10145;BME280;5113;41.822;23.564;2022-07-18T14:33:24;-11808.25;;;31.50;25.42
10145;BME280;5113;41.822;23.564;2022-07-18T14:36:30;-11788.75;;;30.80;25.39
10145;BME280;5113;41.822;23.564;2022-07-18T14:39:36;-11809.66;;;31.56;25.26
10145;BME280;5113;41.822;23.564;2022-07-18T14:42:42;-11785.09;;;30.67;26.14
10145;BME280;5113;41.822;23.564;2022-07-18T14:45:51;-11792.28;;;30.93;26.53
10145;BME280;5113;41.822;23.564;2022-07-18T14:49:07;-11752.31;;;29.49;27.98
10145;BME280;5113;41.822;23.564;2022-07-18T14:52:14;-11738.47;;;29.00;27.90
10145;BME280;5113;41.822;23.564;2022-07-18T14:55:20;-11762.47;;;29.86;27.95
10145;BME280;5113;41.822;23.564;2022-07-18T14:58:27;-11763.59;;;29.90;27.27
10145;BME280;5113;41.822;23.564;2022-07-18T15:01:34;-11748.91;;;29.37;27.07
10145;BME280;5113;41.822;23.564;2022-07-18T15:04:41;-11787.91;;;30.77;26.88
10145;BME280;5113;41.822;23.564;2022-07-18T15:07:47;-11791.44;;;30.90;26.97
10145;BME280;5113;41.822;23.564;2022-07-18T15:10:53;-11758.25;;;29.71;27.89
10145;BME280;5113;41.822;23.564;2022-07-18T15:13:59;-11755.84;;;29.62;28.38
10145;BME280;5113;41.822;23.564;2022-07-18T15:17:07;-11779.56;;;30.47;28.60
10145;BME280;5113;41.822;23.564;2022-07-18T15:20:13;-11773.06;;;30.24;27.39
10145;BME280;5113;41.822;23.564;2022-07-18T15:23:21;-11771.81;;;30.19;27.61
10145;BME280;5113;41.822;23.564;2022-07-18T15:26:28;-11769.13;;;30.10;28.04
10145;BME280;5113;41.822;23.564;2022-07-18T15:29:34;-11793.84;;;30.99;28.01
10145;BME280;5113;41.822;23.564;2022-07-18T15:32:41;-11782.53;;;30.58;26.53
10145;BME280;5113;41.822;23.564;2022-07-18T15:35:48;-11799.78;;;31.20;27.72
10145;BME280;5113;41.822;23.564;2022-07-18T15:38:54;-11869.31;;;33.70;22.77
10145;BME280;5113;41.822;23.564;2022-07-18T15:42:00;-11897.28;;;34.70;21.96
10145;BME280;5113;41.822;23.564;2022-07-18T15:45:07;-11775.34;;;30.32;24.82
10145;BME280;5113;41.822;23.564;2022-07-18T15:48:15;-11722.06;;;28.41;27.58
10145;BME280;5113;41.822;23.564;2022-07-18T15:51:21;-11703.84;;;27.75;27.77
10145;BME280;5113;41.822;23.564;2022-07-18T15:54:28;-11690.16;;;27.26;27.27
10145;BME280;5113;41.822;23.564;2022-07-18T15:57:35;-11690.56;;;27.27;28.24
10145;BME280;5113;41.822;23.564;2022-07-18T16:00:41;-11693.25;;;27.37;28.76
10145;BME280;5113;41.822;23.564;2022-07-18T16:03:50;-11682.25;;;26.98;29.22
10145;BME280;5113;41.822;23.564;2022-07-18T16:06:56;-11676.59;;;26.77;29.19
10145;BME280;5113;41.822;23.564;2022-07-18T16:10:03;-11678.56;;;26.84;29.41
10145;BME280;5113;41.822;23.564;2022-07-18T16:13:10;-11677.16;;;26.79;30.14
10145;BME280;5113;41.822;23.564;2022-07-18T16:16:16;-11668.41;;;26.48;29.95
10145;BME280;5113;41.822;23.564;2022-07-18T16:19:25;-11665.00;;;26.36;29.96
10145;BME280;5113;41.822;23.564;2022-07-18T16:22:31;-11668.69;;;26.49;29.30